createdAt,value
2023-05-02T00:00:53.884Z,4.80
2023-05-02T00:03:48.960Z,4.79
2023-05-02T00:06:37.898Z,4.77
2023-05-02T00:09:17.876Z,4.79
2023-05-02T00:12:04.883Z,4.78
2023-05-02T00:14:37.984Z,4.78
2023-05-02T00:17:25.884Z,4.80
2023-05-02T00:20:05.881Z,4.79
2023-05-02T00:22:52.899Z,4.80
2023-05-02T00:25:32.876Z,4.79
2023-05-02T00:28:26.869Z,4.79
2023-05-02T00:31:20.905Z,4.78
2023-05-02T00:34:07.895Z,4.78
2023-05-02T00:36:41.166Z,4.79
2023-05-02T00:39:27.884Z,4.81
2023-05-02T00:42:05.002Z,4.79
2023-05-02T00:44:51.887Z,4.77
2023-05-02T00:47:25.112Z,4.75
2023-05-02T00:50:12.909Z,4.76
2023-05-02T00:52:46.263Z,4.76
2023-05-02T00:55:32.909Z,4.77
2023-05-02T00:58:07.990Z,4.76
2023-05-02T01:01:21.913Z,4.75
2023-05-02T01:04:07.188Z,4.75
2023-05-02T01:07:21.905Z,4.75
2023-05-02T01:10:38.904Z,4.75
2023-05-02T01:13:35.948Z,4.78
2023-05-02T01:16:24.920Z,4.77
2023-05-02T01:19:05.951Z,4.76
2023-05-02T01:22:01.924Z,4.77
2023-05-02T01:25:24.917Z,4.76
2023-05-02T01:28:04.102Z,4.74
2023-05-02T01:30:53.949Z,4.73
2023-05-02T01:33:29.102Z,4.74
2023-05-02T01:36:16.913Z,4.72
2023-05-02T01:38:51.168Z,4.73
2023-05-02T01:41:38.999Z,4.73
2023-05-02T01:44:20.923Z,4.75
2023-05-02T01:47:18.968Z,4.75
2023-05-02T01:50:06.916Z,4.80
2023-05-02T01:52:40.348Z,4.77
2023-05-02T01:55:26.966Z,4.75
2023-05-02T01:58:09.959Z,4.74
2023-05-02T02:01:05.978Z,4.74
2023-05-02T02:03:54.015Z,4.71
2023-05-02T02:06:34.995Z,4.73
2023-05-02T02:09:21.916Z,4.74
2023-05-02T02:12:19.018Z,4.73
2023-05-02T02:15:27.909Z,4.74
2023-05-02T02:18:20.190Z,4.77
2023-05-02T02:21:07.949Z,4.77
2023-05-02T02:23:43.579Z,4.75
2023-05-02T02:26:30.049Z,4.77
2023-05-02T02:29:03.129Z,4.75
2023-05-02T02:31:50.005Z,4.76
2023-05-02T02:34:23.111Z,4.75
2023-05-02T02:37:25.021Z,4.73
2023-05-02T02:40:17.152Z,4.69
2023-05-02T02:43:24.961Z,4.66
2023-05-02T02:46:17.105Z,4.62
2023-05-02T02:49:33.946Z,4.57
2023-05-02T02:53:01.950Z,4.51
2023-05-02T02:56:08.932Z,4.44
2023-05-02T02:59:13.937Z,4.41
2023-05-02T03:02:10.986Z,4.37
2023-05-02T03:04:54.944Z,4.36
2023-05-02T03:07:41.923Z,4.34
2023-05-02T03:10:21.957Z,4.34
2023-05-02T03:13:08.945Z,4.34
2023-05-02T03:16:00.346Z,4.30
2023-05-02T03:18:47.947Z,4.29
2023-05-02T03:21:21.383Z,4.28
2023-05-02T03:24:09.945Z,4.30
2023-05-02T03:26:43.049Z,4.34
2023-05-02T03:29:30.016Z,4.37
2023-05-02T03:32:03.316Z,4.38
2023-05-02T03:34:49.968Z,4.42
2023-05-02T03:37:23.062Z,4.42
2023-05-02T03:40:10.005Z,4.42
2023-05-02T03:42:44.052Z,4.47
2023-05-02T03:45:30.958Z,4.54
2023-05-02T03:48:04.109Z,4.58
2023-05-02T03:50:50.991Z,4.66
2023-05-02T03:53:30.952Z,4.72
2023-05-02T03:56:17.953Z,4.82
2023-05-02T03:58:51.060Z,4.89
2023-05-02T04:01:38.043Z,4.95
2023-05-02T04:04:11.498Z,5.01
2023-05-02T04:06:57.963Z,5.09
2023-05-02T04:09:31.103Z,5.12
2023-05-02T04:12:17.963Z,5.20
2023-05-02T04:14:51.183Z,5.28
2023-05-02T04:17:38.004Z,5.31
2023-05-02T04:20:18.966Z,5.33
2023-05-02T04:23:05.971Z,5.40
2023-05-02T04:25:39.094Z,5.47
2023-05-02T04:28:27.978Z,5.48
2023-05-02T04:31:01.106Z,5.50
2023-05-02T04:33:48.024Z,5.50
2023-05-02T04:36:21.077Z,5.50
2023-05-02T04:39:07.969Z,5.51
2023-05-02T04:41:41.663Z,5.58
2023-05-02T04:44:27.997Z,5.64
2023-05-02T04:47:01.130Z,5.72
2023-05-02T04:49:47.999Z,5.81
2023-05-02T04:52:21.080Z,5.96
2023-05-02T04:55:08.006Z,6.16
2023-05-02T04:57:47.970Z,6.34
2023-05-02T05:00:34.996Z,6.56
2023-05-02T05:03:18.068Z,6.77
2023-05-02T05:06:12.027Z,7.03
2023-05-02T05:08:59.000Z,7.26
2023-05-02T05:11:33.081Z,7.49
2023-05-02T05:14:19.986Z,7.79
2023-05-02T05:16:53.172Z,8.04
2023-05-02T05:19:39.997Z,8.25
2023-05-02T05:22:13.090Z,8.47
2023-05-02T05:25:03.005Z,8.72
2023-05-02T05:27:43.040Z,8.98
2023-05-02T05:30:47.990Z,9.28
2023-05-02T05:33:28.041Z,9.54
2023-05-02T05:36:23.561Z,9.78
2023-05-02T05:39:18.027Z,9.98
2023-05-02T05:42:04.996Z,10.29
2023-05-02T05:44:45.015Z,10.53
2023-05-02T05:47:32.195Z,10.82
2023-05-02T05:50:06.154Z,11.13
2023-05-02T05:52:53.025Z,11.42
2023-05-02T05:55:33.009Z,11.77
2023-05-02T05:58:27.011Z,12.07
2023-05-02T06:01:22.004Z,12.31
2023-05-02T06:04:10.355Z,12.51
2023-05-02T06:06:51.186Z,12.74
2023-05-02T06:09:38.024Z,13.02
2023-05-02T06:12:11.120Z,13.22
2023-05-02T06:14:58.043Z,13.46
2023-05-02T06:17:31.404Z,13.69
2023-05-02T06:20:18.764Z,13.90
2023-05-02T06:22:52.162Z,14.14
2023-05-02T06:25:40.260Z,14.30
2023-05-02T06:28:20.013Z,14.54
2023-05-02T06:31:09.109Z,14.73
2023-05-02T06:33:50.014Z,14.91
2023-05-02T06:36:44.027Z,15.13
2023-05-02T06:39:38.047Z,15.40
2023-05-02T06:42:32.019Z,15.72
2023-05-02T06:45:19.058Z,16.05
2023-05-02T06:47:52.233Z,16.33
2023-05-02T06:50:39.066Z,16.59
2023-05-02T06:53:15.243Z,16.83
2023-05-02T06:56:02.061Z,17.06
2023-05-02T06:58:44.206Z,17.21
2023-05-02T07:01:38.252Z,17.41
2023-05-02T07:04:25.902Z,17.63
2023-05-02T07:06:59.147Z,17.80
2023-05-02T07:09:46.063Z,18.00
2023-05-02T07:12:19.152Z,18.14
2023-05-02T07:15:06.062Z,18.34
2023-05-02T07:17:39.132Z,18.55
2023-05-02T07:20:26.128Z,18.76
2023-05-02T07:22:59.150Z,18.96
2023-05-02T07:25:47.065Z,19.15
2023-05-02T07:28:27.045Z,19.45
2023-05-02T07:31:14.069Z,19.68
2023-05-02T07:33:47.155Z,19.90
2023-05-02T07:36:34.072Z,20.16
2023-05-02T07:39:14.059Z,20.39
2023-05-02T07:42:01.067Z,20.54
2023-05-02T07:44:35.175Z,20.67
2023-05-02T07:47:22.109Z,20.82
2023-05-02T07:49:59.506Z,20.81
2023-05-02T07:52:46.091Z,20.65
2023-05-02T07:55:19.188Z,20.74
2023-05-02T07:58:13.086Z,21.05
2023-05-02T08:01:00.085Z,21.45
2023-05-02T08:03:40.276Z,21.55
2023-05-02T08:06:27.164Z,21.54
2023-05-02T08:09:01.473Z,21.61
2023-05-02T08:11:48.249Z,21.55
2023-05-02T08:14:30.080Z,21.20
2023-05-02T08:17:17.100Z,20.85
2023-05-02T08:20:02.795Z,20.58
2023-05-02T08:22:50.097Z,20.80
2023-05-02T08:25:23.221Z,21.16
2023-05-02T08:28:10.117Z,21.47
2023-05-02T08:30:52.092Z,21.89
2023-05-02T08:33:46.222Z,22.17
2023-05-02T08:36:35.135Z,22.18
2023-05-02T08:39:16.154Z,22.30
2023-05-02T08:42:03.133Z,22.28
2023-05-02T08:44:43.123Z,22.23
2023-05-02T08:47:32.148Z,22.39
2023-05-02T08:50:06.369Z,22.57
2023-05-02T08:52:56.103Z,22.72
2023-05-02T08:55:30.249Z,22.92
2023-05-02T08:58:24.120Z,22.95
2023-05-02T09:01:28.154Z,23.10
2023-05-02T09:04:16.152Z,23.07
2023-05-02T09:06:50.376Z,23.08
2023-05-02T09:09:39.146Z,23.20
2023-05-02T09:12:20.298Z,23.40
2023-05-02T09:15:23.127Z,22.83
2023-05-02T09:17:56.303Z,22.49
2023-05-02T09:20:48.139Z,22.36
2023-05-02T09:23:28.096Z,22.56
2023-05-02T09:26:31.713Z,22.71
2023-05-02T09:29:34.133Z,22.64
2023-05-02T09:32:21.169Z,22.68
2023-05-02T09:35:20.162Z,22.80
2023-05-02T09:38:15.150Z,23.01
2023-05-02T09:41:10.146Z,23.30
2023-05-02T09:44:06.314Z,23.17
2023-05-02T09:46:54.221Z,22.72
2023-05-02T09:49:56.145Z,22.47
2023-05-02T09:52:43.129Z,23.14
2023-05-02T09:55:35.153Z,23.59
2023-05-02T09:58:37.130Z,23.33
2023-05-02T10:01:26.180Z,23.52
2023-05-02T10:04:01.050Z,23.99
2023-05-02T10:06:52.225Z,24.28
2023-05-02T10:09:32.192Z,24.33
2023-05-02T10:12:22.150Z,24.02
2023-05-02T10:15:05.182Z,23.83
2023-05-02T10:18:02.206Z,24.28
2023-05-02T10:20:56.188Z,24.41
2023-05-02T10:23:42.169Z,24.29
2023-05-02T10:26:37.182Z,24.03
2023-05-02T10:29:31.187Z,23.88
2023-05-02T10:32:28.241Z,23.43
2023-05-02T10:35:22.181Z,22.62
2023-05-02T10:38:22.338Z,22.28
2023-05-02T10:41:08.191Z,22.01
2023-05-02T10:43:52.346Z,21.97
2023-05-02T10:46:48.212Z,22.08
2023-05-02T10:49:29.966Z,22.55
2023-05-02T10:52:40.372Z,22.83
2023-05-02T10:55:35.187Z,22.88
2023-05-02T10:58:32.220Z,23.28
2023-05-02T11:01:34.302Z,23.53
2023-05-02T11:04:08.383Z,23.46
2023-05-02T11:07:06.184Z,23.69
2023-05-02T11:09:47.180Z,23.64
2023-05-02T11:13:00.204Z,23.80
2023-05-02T11:15:47.186Z,24.07
2023-05-02T11:18:21.327Z,24.00
2023-05-02T11:21:32.206Z,23.56
2023-05-02T11:24:56.332Z,23.11
2023-05-02T11:27:52.210Z,22.75
2023-05-02T11:30:50.253Z,22.55
2023-05-02T11:33:24.416Z,22.60
2023-05-02T11:36:11.254Z,22.41
2023-05-02T11:38:45.314Z,22.49
2023-05-02T11:41:48.219Z,22.79
2023-05-02T11:44:21.334Z,22.86
2023-05-02T11:47:09.208Z,22.68
2023-05-02T11:49:50.226Z,22.30
2023-05-02T11:52:38.247Z,22.02
2023-05-02T11:55:20.231Z,22.00
2023-05-02T11:58:08.241Z,22.03
2023-05-02T12:00:49.234Z,21.93
2023-05-02T12:03:46.525Z,21.81
2023-05-02T12:06:40.246Z,21.65
2023-05-02T12:09:34.256Z,21.52
2023-05-02T12:12:21.243Z,21.45
2023-05-02T12:14:55.404Z,21.49
2023-05-02T12:17:55.426Z,21.37
2023-05-02T12:20:29.412Z,21.33
2023-05-02T12:23:17.267Z,21.38
2023-05-02T12:25:57.283Z,21.34
2023-05-02T12:29:02.219Z,21.03
2023-05-02T12:32:06.352Z,21.00
2023-05-02T12:35:00.242Z,20.82
2023-05-02T12:37:54.251Z,20.78
2023-05-02T12:40:41.265Z,20.68
2023-05-02T12:43:14.434Z,20.63
2023-05-02T12:46:27.340Z,20.86
2023-05-02T12:49:24.272Z,20.91
2023-05-02T12:52:18.259Z,20.86
2023-05-02T12:55:32.449Z,20.79
2023-05-02T12:58:23.292Z,20.62
2023-05-02T13:00:56.511Z,20.47
2023-05-02T13:03:43.375Z,20.79
2023-05-02T13:06:25.319Z,20.59
2023-05-02T13:09:20.276Z,20.40
2023-05-02T13:12:14.303Z,20.26
2023-05-02T13:15:01.341Z,20.49
2023-05-02T13:17:42.472Z,20.40
2023-05-02T13:20:36.278Z,20.77
2023-05-02T13:23:30.335Z,20.49
2023-05-02T13:26:18.308Z,20.42
2023-05-02T13:28:51.428Z,20.34
2023-05-02T13:31:38.335Z,20.34
2023-05-02T13:34:11.425Z,20.40
2023-05-02T13:36:58.338Z,20.39
2023-05-02T13:39:31.396Z,20.37
2023-05-02T13:42:18.370Z,20.34
2023-05-02T13:44:51.494Z,20.33
2023-05-02T13:47:39.481Z,20.41
2023-05-02T13:50:14.398Z,20.46
2023-05-02T13:53:01.295Z,20.40
2023-05-02T13:55:41.315Z,20.35
2023-05-02T13:58:35.318Z,20.38
2023-05-02T14:01:29.368Z,20.30
2023-05-02T14:04:16.302Z,20.26
2023-05-02T14:06:56.352Z,20.33
2023-05-02T14:09:43.295Z,20.41
2023-05-02T14:12:16.626Z,20.42
2023-05-02T14:15:03.322Z,20.35
2023-05-02T14:17:44.379Z,20.34
2023-05-02T14:20:31.328Z,20.21
2023-05-02T14:23:05.522Z,20.22
2023-05-02T14:25:54.301Z,20.17
2023-05-02T14:28:28.449Z,20.22
2023-05-02T14:31:15.351Z,20.21
2023-05-02T14:33:48.537Z,20.19
2023-05-02T14:36:35.311Z,20.13
2023-05-02T14:39:08.452Z,20.05
2023-05-02T14:41:55.345Z,19.98
2023-05-02T14:44:28.528Z,19.95
2023-05-02T14:47:15.374Z,19.94
2023-05-02T14:49:55.318Z,19.92
2023-05-02T14:52:49.343Z,19.83
2023-05-02T14:55:43.377Z,19.73
2023-05-02T14:58:30.315Z,19.69
2023-05-02T15:01:10.384Z,19.61
2023-05-02T15:04:06.790Z,19.58
2023-05-02T15:06:41.601Z,19.52
2023-05-02T15:09:28.343Z,19.55
2023-05-02T15:12:05.284Z,19.52
2023-05-02T15:14:52.356Z,19.55
2023-05-02T15:17:26.012Z,19.49
2023-05-02T15:20:13.366Z,19.50
2023-05-02T15:22:46.543Z,19.53
2023-05-02T15:25:33.392Z,19.52
2023-05-02T15:28:14.361Z,19.49
2023-05-02T15:31:01.372Z,19.49
2023-05-02T15:33:34.485Z,19.45
2023-05-02T15:36:22.358Z,19.43
2023-05-02T15:38:55.516Z,19.43
2023-05-02T15:41:42.363Z,19.43
2023-05-02T15:44:22.383Z,19.38
2023-05-02T15:47:11.385Z,19.33
2023-05-02T15:49:45.511Z,19.31
2023-05-02T15:52:32.436Z,19.28
2023-05-02T15:55:05.760Z,19.23
2023-05-02T15:57:52.379Z,19.19
2023-05-02T16:00:33.842Z,19.15
2023-05-02T16:03:27.562Z,19.10
2023-05-02T16:06:24.454Z,19.04
2023-05-02T16:09:13.387Z,19.02
2023-05-02T16:11:53.401Z,18.99
2023-05-02T16:14:47.397Z,18.90
2023-05-02T16:17:41.465Z,18.86
2023-05-02T16:20:28.465Z,18.78
2023-05-02T16:23:01.601Z,18.72
2023-05-02T16:25:48.488Z,18.67
2023-05-02T16:28:21.651Z,18.64
2023-05-02T16:31:17.455Z,18.55
2023-05-02T16:33:51.080Z,18.52
2023-05-02T16:36:38.485Z,18.50
2023-05-02T16:39:18.426Z,18.44
2023-05-02T16:42:05.502Z,18.41
2023-05-02T16:44:38.590Z,18.35
2023-05-02T16:47:25.444Z,18.33
2023-05-02T16:50:06.450Z,18.28
2023-05-02T16:52:53.419Z,18.24
2023-05-02T16:55:26.549Z,18.18
2023-05-02T16:58:13.434Z,18.13
2023-05-02T17:00:46.673Z,18.10
2023-05-02T17:03:33.545Z,18.03
2023-05-02T17:06:07.714Z,18.00
2023-05-02T17:08:54.420Z,17.94
2023-05-02T17:11:28.565Z,17.86
2023-05-02T17:14:15.454Z,17.77
2023-05-02T17:16:48.529Z,17.67
2023-05-02T17:19:36.426Z,17.52
2023-05-02T17:22:16.470Z,17.43
2023-05-02T17:25:03.440Z,17.36
2023-05-02T17:27:44.464Z,17.28
2023-05-02T17:30:38.497Z,17.13
2023-05-02T17:33:25.443Z,17.00
2023-05-02T17:35:58.647Z,16.93
2023-05-02T17:38:45.489Z,16.79
2023-05-02T17:41:19.587Z,16.65
2023-05-02T17:44:06.458Z,16.56
2023-05-02T17:46:39.729Z,16.47
2023-05-02T17:49:26.550Z,16.40
2023-05-02T17:51:59.632Z,16.33
2023-05-02T17:54:46.471Z,16.26
2023-05-02T17:57:26.452Z,16.17
2023-05-02T18:00:20.448Z,16.05
2023-05-02T18:03:14.586Z,15.90
2023-05-02T18:06:08.573Z,15.78
2023-05-02T18:08:55.448Z,15.64
2023-05-02T18:11:28.566Z,15.55
2023-05-02T18:14:15.468Z,15.43
2023-05-02T18:16:48.870Z,15.28
2023-05-02T18:19:36.435Z,15.09
2023-05-02T18:22:09.616Z,14.99
2023-05-02T18:24:56.514Z,14.89
2023-05-02T18:27:36.560Z,14.78
2023-05-02T18:30:23.479Z,14.74
2023-05-02T18:33:03.556Z,14.62
2023-05-02T18:35:57.472Z,14.47
2023-05-02T18:38:40.456Z,14.35
2023-05-02T18:41:34.460Z,14.24
2023-05-02T18:44:28.447Z,14.15
2023-05-02T18:47:15.466Z,14.04
2023-05-02T18:49:50.232Z,13.97
2023-05-02T18:52:37.474Z,13.92
2023-05-02T18:55:12.746Z,13.86
2023-05-02T18:57:59.551Z,13.81
2023-05-02T19:00:34.363Z,13.75
2023-05-02T19:03:23.519Z,13.68
2023-05-02T19:05:57.802Z,13.57
2023-05-02T19:08:48.497Z,13.51
2023-05-02T19:11:23.687Z,13.48
2023-05-02T19:14:10.483Z,13.48
2023-05-02T19:16:47.692Z,13.49
2023-05-02T19:19:34.492Z,13.47
2023-05-02T19:22:14.487Z,13.42
2023-05-02T19:25:08.481Z,13.39
2023-05-02T19:28:02.553Z,13.38
2023-05-02T19:30:50.795Z,13.34
2023-05-02T19:33:25.831Z,13.33
2023-05-02T19:36:13.485Z,13.31
2023-05-02T19:38:54.579Z,13.31
2023-05-02T19:41:49.493Z,13.29
2023-05-02T19:44:38.478Z,13.22
2023-05-02T19:47:18.497Z,13.23
2023-05-02T19:50:12.502Z,13.24
2023-05-02T19:53:08.496Z,13.25
2023-05-02T19:55:55.500Z,13.23
2023-05-02T19:58:28.838Z,13.19
2023-05-02T20:01:15.560Z,13.17
2023-05-02T20:03:48.784Z,13.15
2023-05-02T20:06:35.636Z,13.11
2023-05-02T20:09:15.496Z,13.05
2023-05-02T20:12:02.590Z,13.07
2023-05-02T20:14:35.707Z,13.06
2023-05-02T20:17:22.518Z,13.06
2023-05-02T20:20:03.659Z,13.04
2023-05-02T20:22:51.514Z,12.99
2023-05-02T20:25:31.527Z,13.00
2023-05-02T20:28:25.506Z,12.96
2023-05-02T20:31:12.567Z,12.97
2023-05-02T20:33:46.237Z,12.97
2023-05-02T20:36:35.505Z,12.95
2023-05-02T20:39:10.251Z,12.95
2023-05-02T20:41:59.544Z,12.90
2023-05-02T20:44:34.139Z,12.85
2023-05-02T20:47:20.560Z,12.82
2023-05-02T20:50:09.600Z,12.81
2023-05-02T20:53:03.554Z,12.78
2023-05-02T20:55:57.520Z,12.74
2023-05-02T20:58:51.594Z,12.65
2023-05-02T21:01:48.599Z,12.61
2023-05-02T21:04:42.567Z,12.62
2023-05-02T21:07:36.572Z,12.62
2023-05-02T21:10:34.569Z,12.63
2023-05-02T21:13:28.591Z,12.62
2023-05-02T21:16:25.617Z,12.55
2023-05-02T21:18:58.759Z,12.56
2023-05-02T21:21:45.522Z,12.54
2023-05-02T21:24:18.742Z,12.54
2023-05-02T21:27:05.702Z,12.54
2023-05-02T21:29:38.724Z,12.54
2023-05-02T21:32:25.626Z,12.54
2023-05-02T21:34:58.664Z,12.56
2023-05-02T21:37:45.636Z,12.53
2023-05-02T21:40:19.826Z,12.52
2023-05-02T21:43:06.594Z,12.51
2023-05-02T21:45:42.708Z,12.47
2023-05-02T21:48:29.535Z,12.47
2023-05-02T21:51:02.713Z,12.43
2023-05-02T21:53:49.530Z,12.40
2023-05-02T21:56:22.706Z,12.33
2023-05-02T21:59:09.597Z,12.31
2023-05-02T22:01:42.805Z,12.33
2023-05-02T22:04:30.564Z,12.35
2023-05-02T22:07:03.685Z,12.37
2023-05-02T22:09:50.588Z,12.35
2023-05-02T22:12:31.594Z,12.32
2023-05-02T22:15:25.589Z,12.26
2023-05-02T22:18:16.585Z,12.20
2023-05-02T22:20:50.771Z,12.19
2023-05-02T22:23:37.596Z,12.18
2023-05-02T22:26:17.648Z,12.15
2023-05-02T22:29:11.656Z,12.11
2023-05-02T22:32:08.632Z,12.08
2023-05-02T22:35:02.590Z,12.06
2023-05-02T22:37:49.593Z,12.06
2023-05-02T22:40:29.589Z,12.03
2023-05-02T22:43:16.579Z,12.03
2023-05-02T22:45:51.338Z,12.03
2023-05-02T22:48:38.597Z,12.01
2023-05-02T22:51:11.692Z,11.97
2023-05-02T22:54:00.613Z,11.95
2023-05-02T22:56:36.164Z,11.93
2023-05-02T22:59:23.604Z,11.92
2023-05-02T23:01:56.832Z,11.92
2023-05-02T23:04:43.593Z,11.91
2023-05-02T23:07:23.636Z,11.88
2023-05-02T23:10:24.307Z,11.85
2023-05-02T23:13:10.589Z,11.81
2023-05-02T23:15:50.692Z,11.81
2023-05-02T23:18:44.570Z,11.81
2023-05-02T23:21:39.752Z,11.79
2023-05-02T23:24:33.678Z,11.76
2023-05-02T23:27:21.726Z,11.73
2023-05-02T23:29:54.756Z,11.71
2023-05-02T23:32:41.676Z,11.67
2023-05-02T23:35:23.722Z,11.67
2023-05-02T23:38:14.590Z,11.64
2023-05-02T23:40:47.749Z,11.64
2023-05-02T23:43:35.643Z,11.63
2023-05-02T23:46:08.823Z,11.63
2023-05-02T23:48:55.637Z,11.59
2023-05-02T23:51:28.758Z,11.57
2023-05-02T23:54:15.702Z,11.53
2023-05-02T23:56:51.031Z,11.49
2023-05-02T23:59:37.658Z,11.45
